KDSV/DSV METAR and TAF weather

Enter ICAO airport designator
Station Type Date Time Source
KDSV METAR 2018/01/22 19:54 UTC NOAA

KDSV 221954Z AUTO 17007KT 10SM BKN120 11/07 A2988 RMK AO2 SLP131 T01110072


Station Type Date Time Source
KDSV Decoded METAR 2018/01/22 19:54 UTC NOAA

DANSVILLE MUNICIPAL AIRPORT, NY, United States (KDSV) 42-34N 077-43W 198M
Jan 22, 2018 - 02:54 PM EST / 2018.01.22 1954 UTC
Wind: from the S (170 degrees) at 8 MPH (7 KT):0
Visibility: 10 mile(s):0
Sky conditions: mostly cloudy
Temperature: 52.0 F (11.1 C)
Dew Point: 45.0 F (7.2 C)
Relative Humidity: 76%
Pressure (altimeter): 29.88 in. Hg (1011 hPa)
ob: KDSV 221954Z AUTO 17007KT 10SM BKN120 11/07 A2988 RMK AO2 SLP131 T01110072
cycle: 20

Station Type Date Time Source
KDSV TAF UTC NOAA

Error!


Example: see airport list